Time;durP1;ratioP1;P1;durP2;ratioP2;P2;SDS_P1;SDS_P2;PMS_P1;PMS_P2;Temp;Humidity;BMP_temperature;BMP_pressure;BME280_temperature;BME280_humidity;BME280_pressure;Samples;Min_cycle;Max_cycle;Signal;HPM_P1;HPM_P2
2023/02/21 02:16:22;;;;;;;7.88;3.38;;;;;;;4.79;100.00;100255.38;5074063;28;20035;-81
2023/02/21 02:18:57;;;;;;;7.10;3.63;;;;;;;4.94;100.00;100283.91;5055005;28;20025;-79
2023/02/21 02:21:31;;;;;;;8.13;3.40;;;;;;;5.06;100.00;100321.69;5055135;28;20082;-79
2023/02/21 02:24:18;;;;;;;5.28;3.58;;;;;;;5.14;100.00;100314.97;5073056;28;20036;-79
2023/02/21 02:26:58;;;;;;;5.78;3.70;;;;;;;4.61;100.00;100318.31;5054418;28;20079;-78
2023/02/21 02:30:02;;;;;;;13.45;7.85;;;;;;;4.60;100.00;100312.44;5072630;28;20043;-78
2023/02/21 02:32:41;;;;;;;5.43;3.53;;;;;;;4.92;100.00;100299.88;5054255;28;20063;-79
2023/02/21 02:35:29;;;;;;;14.52;9.90;;;;;;;5.20;100.00;100299.84;5072030;28;20056;-79
2023/02/21 02:38:02;;;;;;;7.75;3.78;;;;;;;4.74;100.00;100257.91;5072404;28;20025;-79
2023/02/21 02:40:33;;;;;;;6.60;4.00;;;;;;;5.11;100.00;100309.13;5054576;28;20040;-78
2023/02/21 02:43:13;;;;;;;6.18;4.07;;;;;;;4.23;100.00;100215.09;5072557;28;20047;-80
2023/02/21 02:45:48;;;;;;;6.70;4.40;;;;;;;4.86;100.00;100303.22;5072152;28;20098;-78
2023/02/21 02:48:21;;;;;;;7.22;4.88;;;;;;;4.98;100.00;100290.63;5054472;28;20036;-79
2023/02/21 02:50:48;;;;;;;5.65;3.22;;;;;;;4.72;100.00;100239.44;5072260;28;20439;-79
2023/02/21 02:53:27;;;;;;;7.18;3.75;;;;;;;4.85;100.00;100248.66;5071918;28;20028;-80
2023/02/21 02:55:59;;;;;;;8.65;4.63;;;;;;;4.84;100.00;100282.25;5055026;28;20090;-79
2023/02/21 02:58:29;;;;;;;9.32;6.80;;;;;;;4.72;100.00;100271.31;5072290;28;20039;-81
2023/02/21 03:01:07;;;;;;;8.27;5.57;;;;;;;5.00;100.00;100268.81;5071346;28;20052;-81
2023/02/21 03:03:47;;;;;;;7.47;4.38;;;;;;;4.78;100.00;100274.69;5053811;28;20032;-81
2023/02/21 03:06:28;;;;;;;5.95;4.00;;;;;;;4.95;100.00;100267.94;5071313;28;20061;-80
2023/02/21 03:09:18;;;;;;;7.35;4.07;;;;;;;5.10;100.00;100278.03;5067586;28;20039;-80
2023/02/21 03:11:55;;;;;;;7.15;4.40;;;;;;;4.99;100.00;100272.16;5072297;28;20039;-80
2023/02/21 03:14:24;;;;;;;8.30;4.30;;;;;;;4.70;100.00;100226.00;5054405;28;20126;-81
2023/02/21 03:16:54;;;;;;;8.20;4.50;;;;;;;4.91;100.00;100265.47;5071590;28;20036;-82
2023/02/21 03:19:25;;;;;;;7.50;4.47;;;;;;;4.99;100.00;100226.00;5053949;28;20048;-85
2023/02/21 03:21:57;;;;;;;6.85;5.47;;;;;;;4.87;100.00;100261.25;5071576;28;20028;-79
2023/02/21 03:24:24;;;;;;;7.50;4.70;;;;;;;4.66;100.00;100199.16;5070504;28;20123;-77
2023/02/21 03:26:54;;;;;;;6.32;4.53;;;;;;;5.02;100.00;100262.09;5071267;28;20032;-78
2023/02/21 03:29:20;;;;;;;8.82;4.45;;;;;;;4.16;100.00;100158.88;5053955;28;20025;-78
2023/02/21 03:34:38;;;;;;;6.38;4.22;;;;;;;4.83;100.00;100240.25;5071807;28;20833;-80
2023/02/21 03:37:06;;;;;;;8.65;4.53;;;;;;;4.51;100.00;100171.50;5071452;28;20024;-80
2023/02/21 03:39:31;;;;;;;6.38;4.07;;;;;;;4.66;100.00;100278.88;5072059;28;20926;-80
2023/02/21 03:41:57;;;;;;;8.50;4.35;;;;;;;4.59;100.00;100217.63;5070958;28;20063;-81
2023/02/21 03:44:22;;;;;;;8.23;4.63;;;;;;;4.62;100.00;100231.88;5053807;28;20387;-79
2023/02/21 03:46:47;;;;;;;7.70;4.32;;;;;;;4.76;100.00;100215.09;5070196;28;20119;-79
2023/02/21 03:49:13;;;;;;;8.98;4.40;;;;;;;4.89;100.00;100227.66;5071640;28;20468;-79
2023/02/21 03:51:38;;;;;;;6.13;4.45;;;;;;;4.54;100.00;100208.38;5071460;28;20035;-79
2023/02/21 03:54:04;;;;;;;7.85;4.50;;;;;;;4.61;100.00;100185.75;5070544;28;20028;-79
2023/02/21 03:56:29;;;;;;;7.10;5.13;;;;;;;4.88;100.00;100288.13;5070432;28;20040;-79
2023/02/21 03:58:54;;;;;;;7.10;5.13;;;;;;;4.83;100.00;100225.16;5053007;28;20033;-80
2023/02/21 04:01:20;;;;;;;8.48;5.40;;;;;;;5.14;100.00;100282.22;5052921;28;20114;-81
2023/02/21 04:03:45;;;;;;;5.78;4.45;;;;;;;4.37;100.00;100233.56;5079645;28;20124;-81
2023/02/21 04:06:11;;;;;;;6.00;4.60;;;;;;;4.96;100.00;100269.66;5052989;28;20032;-81
2023/02/21 04:08:36;;;;;;;7.00;5.07;;;;;;;4.88;100.00;100198.28;5071471;28;20053;-81
2023/02/21 04:11:01;;;;;;;10.20;6.65;;;;;;;4.60;100.00;100219.28;5071642;28;20031;-81
2023/02/21 04:13:27;;;;;;;7.93;4.47;;;;;;;5.35;100.00;100267.91;5070847;28;20037;-82
2023/02/21 04:15:52;;;;;;;7.82;4.55;;;;;;;4.98;100.00;100257.88;5070421;28;20404;-82
2023/02/21 04:18:18;;;;;;;8.68;4.88;;;;;;;5.18;100.00;100262.91;5053947;28;20024;-83
2023/02/21 04:20:45;;;;;;;9.10;6.22;;;;;;;5.18;100.00;100255.34;5056653;28;20032;-82
2023/02/21 04:23:10;;;;;;;10.30;6.95;;;;;;;4.71;100.00;100197.50;5056917;28;20059;-83
2023/02/21 04:25:36;;;;;;;43.22;22.38;;;;;;;4.62;100.00;100146.28;5074914;28;20495;-81
2023/02/21 04:28:01;;;;;;;19.58;11.38;;;;;;;4.91;100.00;100243.59;5056138;28;20491;-79
2023/02/21 04:30:26;;;;;;;13.35;7.57;;;;;;;5.10;100.00;100257.88;5049063;28;20028;-83
2023/02/21 04:32:52;;;;;;;11.38;6.95;;;;;;;4.67;100.00;100215.94;5074045;28;20115;-79
2023/02/21 04:35:17;;;;;;;6.95;5.00;;;;;;;5.05;100.00;100228.50;5055772;28;20029;-73
2023/02/21 04:37:45;;;;;;;5.72;4.28;;;;;;;5.43;100.00;100241.81;5073722;28;20032;-77
2023/02/21 04:40:11;;;;;;;10.18;4.72;;;;;;;6.96;100.00;100227.44;5074210;28;20024;-80
2023/02/21 04:42:37;;;;;;;9.13;5.28;;;;;;;4.98;100.00;100197.44;5074640;28;20039;-82
2023/02/21 04:45:02;;;;;;;9.70;5.55;;;;;;;5.10;100.00;100183.97;5073769;28;20047;-81
2023/02/21 04:47:28;;;;;;;10.80;5.75;;;;;;;5.46;100.00;100246.88;5065184;28;20029;-78
2023/02/21 04:49:53;;;;;;;10.02;6.15;;;;;;;4.98;100.00;100250.34;5068805;28;20038;-79
2023/02/21 04:52:21;;;;;;;11.10;6.22;;;;;;;5.55;100.00;100245.97;5068035;28;20040;-77
2023/02/21 04:54:47;;;;;;;13.35;6.53;;;;;;;4.93;100.00;100193.25;5063489;28;20029;-76
2023/02/21 04:57:14;;;;;;;9.27;6.22;;;;;;;5.13;100.00;100265.41;5053264;28;20122;-74
2023/02/21 04:59:39;;;;;;;13.02;8.18;;;;;;;4.82;100.00;100261.25;5053222;28;20486;-76
2023/02/21 05:02:07;;;;;;;11.77;8.50;;;;;;;5.09;100.00;100240.25;5069730;28;20140;-76
2023/02/21 05:04:33;;;;;;;15.07;10.10;;;;;;;5.49;100.00;100235.91;5073643;28;20029;-76
2023/02/21 05:06:59;;;;;;;13.48;9.38;;;;;;;5.51;100.00;100234.22;5072620;28;20025;-75
2023/02/21 05:09:24;;;;;;;17.83;11.48;;;;;;;5.35;100.00;100250.28;5072314;28;20081;-76
2023/02/21 05:11:49;;;;;;;17.63;12.10;;;;;;;5.11;100.00;100233.53;5054888;28;20096;-74
2023/02/21 05:14:17;;;;;;;22.15;14.43;;;;;;;4.73;100.00;100210.06;5054490;28;20182;-73
2023/02/21 05:16:44;;;;;;;18.10;12.35;;;;;;;5.09;100.00;100232.69;5055865;28;20047;-75
2023/02/21 05:19:10;;;;;;;18.75;12.23;;;;;;;4.93;100.00;100228.53;5070625;28;20060;-75
2023/02/21 05:21:39;;;;;;;17.20;12.05;;;;;;;5.27;100.00;100235.16;5072775;28;20479;-80
2023/02/21 05:24:06;;;;;;;24.58;16.92;;;;;;;5.38;100.00;100241.00;5054371;28;20185;-80
2023/02/21 05:26:36;;;;;;;32.08;19.00;;;;;;;4.79;100.00;100169.78;5055159;28;20036;-76
2023/02/21 05:29:03;;;;;;;29.25;18.98;;;;;;;4.40;100.00;100176.50;5072512;28;20040;-74
2023/02/21 05:31:30;;;;;;;30.85;20.33;;;;;;;5.31;100.00;100243.56;5053111;28;20098;-74
2023/02/21 05:33:56;;;;;;;41.53;27.48;;;;;;;5.15;100.00;100189.84;5054900;28;20079;-77
2023/02/21 05:36:24;;;;;;;23.52;13.98;;;;;;;5.86;100.00;100240.03;5071583;28;20040;-76
2023/02/21 05:38:52;;;;;;;25.90;17.30;;;;;;;5.62;100.00;100247.66;5055528;28;20033;-76
2023/02/21 05:41:18;;;;;;;19.27;13.40;;;;;;;5.15;100.00;100178.06;5072394;28;20024;-76
2023/02/21 05:43:45;;;;;;;22.98;12.18;;;;;;;5.36;100.00;100186.41;5055006;28;20025;-75
2023/02/21 05:46:26;;;;;;;17.08;10.50;;;;;;;6.11;100.00;100150.72;5054147;28;20068;-76
2023/02/21 05:48:52;;;;;;;21.17;11.85;;;;;;;7.65;100.00;100235.94;5071875;28;20044;-75
2023/02/21 05:51:18;;;;;;;19.33;11.18;;;;;;;7.16;100.00;100201.09;5072221;28;20032;-78
2023/02/21 05:53:44;;;;;;;19.45;12.93;;;;;;;6.60;100.00;100222.69;5054383;28;20051;-75
2023/02/21 05:56:10;;;;;;;22.58;12.80;;;;;;;6.74;100.00;100247.84;5054131;28;20388;-75
2023/02/21 05:58:35;;;;;;;24.48;12.82;;;;;;;5.94;100.00;100197.94;5072128;28;20110;-76
2023/02/21 06:01:01;;;;;;;26.50;15.40;;;;;;;6.26;100.00;100256.59;5072264;28;20047;-76
2023/02/21 06:03:26;;;;;;;24.23;14.57;;;;;;;6.82;100.00;100258.72;5072280;28;20358;-76
2023/02/21 06:05:51;;;;;;;27.13;14.55;;;;;;;5.96;100.00;100261.84;5054057;28;20040;-76
2023/02/21 06:08:17;;;;;;;28.70;14.30;;;;;;;5.98;100.00;100258.44;5072040;28;20056;-75
2023/02/21 06:10:42;;;;;;;27.30;14.57;;;;;;;6.12;100.00;100192.75;5053865;28;20411;-76
2023/02/21 06:13:08;;;;;;;25.65;15.90;;;;;;;6.13;100.00;100247.44;5070946;28;20032;-75
2023/02/21 06:15:33;;;;;;;24.02;15.13;;;;;;;5.33;100.00;100183.91;5071920;28;20583;-75
2023/02/21 06:17:58;;;;;;;22.73;14.95;;;;;;;5.84;100.00;100270.28;5071893;28;20116;-75
2023/02/21 06:20:24;;;;;;;24.85;15.55;;;;;;;5.59;100.00;100202.25;5053715;28;20115;-75
2023/02/21 06:22:49;;;;;;;29.65;18.98;;;;;;;5.55;100.00;100160.25;5072195;28;20425;-75
2023/02/21 06:25:15;;;;;;;32.35;23.10;;;;;;;5.58;100.00;100225.81;5070731;28;20021;-76
2023/02/21 06:27:42;;;;;;;25.15;13.80;;;;;;;5.19;100.00;100169.66;5072626;28;20036;-76
2023/02/21 06:30:08;;;;;;;21.83;12.73;;;;;;;5.60;100.00;100236.75;5072012;28;20024;-75
2023/02/21 06:32:34;;;;;;;29.55;16.05;;;;;;;5.85;100.00;100245.91;5054054;28;20094;-76
2023/02/21 06:34:59;;;;;;;25.45;17.77;;;;;;;5.70;100.00;100208.97;5054434;28;20464;-76
2023/02/21 06:37:25;;;;;;;24.63;15.18;;;;;;;6.24;100.00;100253.25;5054010;28;20682;-75
2023/02/21 06:39:50;;;;;;;22.48;13.95;;;;;;;5.87;100.00;100166.00;5054266;28;20119;-77
2023/02/21 06:42:17;;;;;;;21.55;14.43;;;;;;;6.46;100.00;100211.88;5053548;28;20119;-76
2023/02/21 06:44:46;;;;;;;24.52;17.15;;;;;;;6.48;100.00;100205.13;5071775;28;20035;-76
2023/02/21 06:47:13;;;;;;;27.20;16.05;;;;;;;6.69;100.00;100204.97;5071754;28;20036;-76
2023/02/21 06:49:38;;;;;;;25.65;17.30;;;;;;;6.58;100.00;100189.03;5054067;28;20033;-76
2023/02/21 06:52:05;;;;;;;24.55;15.80;;;;;;;7.13;100.00;100198.63;5071451;28;20028;-75
2023/02/21 06:54:30;;;;;;;27.33;16.95;;;;;;;7.19;100.00;100218.78;5054011;28;20063;-76
2023/02/21 06:56:56;;;;;;;24.80;14.50;;;;;;;7.53;100.00;100199.81;5071490;28;20032;-78
2023/02/21 06:59:21;;;;;;;28.45;16.67;;;;;;;7.97;100.00;100195.03;5071883;28;20040;-79
2023/02/21 07:01:47;;;;;;;23.45;15.10;;;;;;;8.03;100.00;100245.59;5071469;28;20064;-78
2023/02/21 07:04:12;;;;;;;20.88;14.27;;;;;;;8.12;100.00;100249.69;5071402;28;20075;-76
2023/02/21 07:06:38;;;;;;;22.30;13.43;;;;;;;8.01;100.00;100242.22;5071401;28;20087;-77
2023/02/21 07:09:03;;;;;;;12.80;9.38;;;;;;;7.93;100.00;100254.16;5054128;28;20064;-75
2023/02/21 07:11:32;;;;;;;17.50;9.98;;;;;;;8.36;100.00;100254.44;5071868;28;20064;-76
2023/02/21 07:13:58;;;;;;;19.88;10.82;;;;;;;7.92;100.00;100272.75;5071288;28;20032;-75
2023/02/21 07:16:24;;;;;;;13.40;8.80;;;;;;;8.19;100.00;100269.00;5054304;28;20112;-77
2023/02/21 07:18:50;;;;;;;16.80;9.02;;;;;;;7.50;100.00;100203.25;5071440;28;20044;-77
2023/02/21 07:21:17;;;;;;;16.85;10.40;;;;;;;7.97;100.00;100268.44;5053503;28;20032;-75
2023/02/21 07:23:43;;;;;;;12.45;7.93;;;;;;;7.76;100.00;100203.75;5053321;28;20050;-75
2023/02/21 07:26:10;;;;;;;11.93;7.15;;;;;;;9.65;100.00;100231.00;5071754;28;20442;-75
2023/02/21 07:28:35;;;;;;;12.48;7.65;;;;;;;9.08;100.00;100211.84;5071982;28;20104;-76
2023/02/21 07:31:01;;;;;;;15.30;8.70;;;;;;;8.73;100.00;100256.38;5071220;28;20062;-75
2023/02/21 07:33:26;;;;;;;16.60;9.85;;;;;;;7.60;100.00;100194.69;5053217;28;20467;-75
2023/02/21 07:35:52;;;;;;;14.70;8.00;;;;;;;8.51;100.00;100250.00;5053392;28;20127;-75
2023/02/21 07:38:22;;;;;;;11.95;8.02;;;;;;;8.86;100.00;100240.97;5071386;28;20040;-77
2023/02/21 07:40:48;;;;;;;17.67;9.10;;;;;;;9.66;100.00;100240.31;5071014;28;20052;-76
2023/02/21 07:43:13;;;;;;;15.15;9.10;;;;;;;9.75;100.00;100231.66;5071015;28;20060;-76
2023/02/21 07:45:38;;;;;;;13.05;8.55;;;;;;;10.61;100.00;100189.09;5070679;28;20086;-76
2023/02/21 07:48:04;;;;;;;16.75;7.60;;;;;;;10.98;100.00;100172.84;5070413;28;20083;-76
2023/02/21 07:50:29;;;;;;;10.80;7.93;;;;;;;10.58;100.00;100174.72;5070937;28;20106;-76
2023/02/21 07:52:56;;;;;;;13.77;8.93;;;;;;;10.46;100.00;100137.75;5070156;28;20084;-77
2023/02/21 07:55:21;;;;;;;11.57;8.00;;;;;;;9.94;100.00;100169.47;5075033;28;20035;-76
2023/02/21 07:57:47;;;;;;;14.65;7.88;;;;;;;10.61;100.00;100196.72;5056840;28;20020;-77
2023/02/21 08:00:13;;;;;;;9.82;6.28;;;;;;;10.67;100.00;100153.34;5074081;28;20042;-77
2023/02/21 08:02:39;;;;;;;8.98;5.43;;;;;;;10.67;100.00;100207.56;5056371;28;20045;-77
2023/02/21 08:05:05;;;;;;;12.40;6.30;;;;;;;11.71;100.00;100194.56;5074970;28;20040;-77
2023/02/21 08:07:31;;;;;;;13.75;8.00;;;;;;;11.82;100.00;100159.44;5074878;28;20032;-77
2023/02/21 08:09:56;;;;;;;17.13;10.35;;;;;;;12.08;100.00;100207.06;5056853;28;20031;-77
2023/02/21 08:12:22;;;;;;;13.45;7.90;;;;;;;12.31;100.00;100148.53;5074116;28;20068;-77
2023/02/21 08:14:47;;;;;;;10.70;4.40;;;;;;;11.41;100.00;100147.03;5075051;28;20115;-77
2023/02/21 08:17:13;;;;;;;5.28;3.50;;;;;;;12.14;100.00;100173.75;5074177;28;20033;-79
2023/02/21 08:19:39;;;;;;;7.15;2.70;;;;;;;12.61;100.00;100149.25;5074262;28;20032;-77
2023/02/21 08:22:04;;;;;;;5.95;2.83;;;;;;;13.16;100.00;100140.53;5056204;28;20028;-76
2023/02/21 08:24:30;;;;;;;6.85;3.08;;;;;;;11.49;100.00;100137.47;5056535;28;20077;-77
2023/02/21 08:26:55;;;;;;;8.57;4.88;;;;;;;11.44;100.00;100146.13;5056584;28;20029;-77
2023/02/21 08:29:21;;;;;;;6.60;5.13;;;;;;;12.07;100.00;100173.09;5057169;28;20028;-77
2023/02/21 08:31:46;;;;;;;6.45;3.33;;;;;;;12.65;100.00;100144.00;5056255;28;20037;-77
2023/02/21 08:34:12;;;;;;;10.00;5.25;;;;;;;12.41;100.00;100128.69;5073881;28;20044;-78
2023/02/21 08:36:41;;;;;;;12.02;6.53;;;;;;;12.99;100.00;100164.91;5074885;28;20028;-79
2023/02/21 08:39:08;;;;;;;12.35;5.90;;;;;;;13.04;100.00;100119.69;5073639;28;20540;-77
2023/02/21 08:41:45;;;;;;;12.05;6.55;;;;;;;12.46;100.00;100076.63;5073782;28;20075;-79
2023/02/21 08:44:16;;;;;;;10.20;6.72;;;;;;;13.72;100.00;100147.78;5070365;28;20419;-79
2023/02/21 08:46:43;;;;;;;9.35;5.35;;;;;;;13.66;100.00;100154.84;5074075;28;20032;-77
2023/02/21 08:49:09;;;;;;;7.53;4.95;;;;;;;12.77;100.00;100099.38;5073551;28;20494;-75
2023/02/21 08:51:35;;;;;;;8.75;4.53;;;;;;;13.28;100.00;100123.06;5056177;28;20102;-76
2023/02/21 08:54:02;;;;;;;10.95;5.35;;;;;;;13.23;100.00;100147.91;5074582;28;20029;-75
2023/02/21 08:56:29;;;;;;;9.30;5.68;;;;;;;12.79;100.00;100105.25;5056265;28;20119;-76
2023/02/21 08:58:55;;;;;;;9.50;5.25;;;;;;;12.95;100.00;100132.72;5055975;28;20487;-76
2023/02/21 09:01:22;;;;;;;8.90;5.47;;;;;;;13.27;100.00;100134.16;5055331;28;20047;-76
2023/02/21 09:03:47;;;;;;;9.77;5.85;;;;;;;13.41;100.00;100085.97;5074185;28;20032;-78
2023/02/21 09:06:13;;;;;;;8.80;5.50;;;;;;;13.28;100.00;100143.50;5072696;28;20477;-77
2023/02/21 09:08:39;;;;;;;10.05;5.60;;;;;;;13.17;100.00;100130.28;5056240;28;20093;-79
2023/02/21 09:11:06;;;;;;;11.43;5.35;;;;;;;13.35;100.00;100136.44;5055841;28;20025;-77
2023/02/21 09:13:32;;;;;;;8.88;5.25;;;;;;;13.39;100.00;100136.25;5073386;28;20060;-76
2023/02/21 09:15:59;;;;;;;8.80;5.55;;;;;;;13.65;100.00;100040.75;5055590;28;20028;-77
2023/02/21 09:18:25;;;;;;;14.88;6.78;;;;;;;14.22;100.00;100119.41;5073482;28;20033;-75
2023/02/21 09:20:52;;;;;;;10.43;5.60;;;;;;;13.86;100.00;100125.06;5073013;28;20478;-76
2023/02/21 09:23:19;;;;;;;9.35;5.32;;;;;;;13.96;100.00;100069.34;5073506;28;20020;-75
2023/02/21 09:25:45;;;;;;;11.65;5.53;;;;;;;14.67;100.00;100109.84;5055422;28;20636;-76
2023/02/21 09:28:11;;;;;;;9.48;5.40;;;;;;;15.23;100.00;100107.38;5072958;28;20033;-75
2023/02/21 09:30:37;;;;;;;7.88;4.70;;;;;;;15.12;100.00;100105.28;5055683;28;20071;-76
2023/02/21 09:33:02;;;;;;;10.05;5.45;;;;;;;15.01;100.00;100076.78;5072759;28;20106;-76
2023/02/21 09:35:29;;;;;;;11.00;5.65;;;;;;;15.69;100.00;100083.09;5073409;28;20032;-76
2023/02/21 09:37:58;;;;;;;13.90;6.35;;;;;;;15.25;100.00;100090.22;5073114;28;20090;-75
2023/02/21 09:40:50;;;;;;;7.35;4.78;;;;;;;15.26;100.00;100094.44;5054600;28;20036;-75
2023/02/21 09:43:33;;;;;;;16.10;5.35;;;;;;;15.14;100.00;100044.59;5055406;28;20034;-75
2023/02/21 09:46:02;;;;;;;9.75;4.80;;;;;;;15.50;100.00;100077.97;5054914;28;20044;-75
2023/02/21 09:48:29;;;;;;;11.90;4.72;;;;;;;15.32;100.00;100056.56;5072637;28;20033;-75
2023/02/21 09:50:59;;;;;;;13.07;5.03;;;;;;;15.76;100.00;100076.75;5055027;28;20111;-75
2023/02/21 09:53:35;;;;;;;9.27;4.82;;;;;;;15.49;100.00;100018.19;5072125;28;20040;-76
2023/02/21 09:56:12;;;;;;;13.20;6.05;;;;;;;16.21;100.00;100054.00;5054609;28;20032;-76
2023/02/21 09:58:42;;;;;;;8.23;3.85;;;;;;;16.17;100.00;100006.31;5073188;28;20039;-75
2023/02/21 10:01:25;;;;;;;8.65;4.10;;;;;;;16.63;99.27;100046.72;5050551;28;20084;-77
2023/02/21 10:04:13;;;;;;;7.22;3.30;;;;;;;16.86;100.00;100035.25;5035111;28;20029;-76
2023/02/21 10:06:45;;;;;;;15.55;5.68;;;;;;;17.55;91.28;100035.78;5034566;28;20123;-75
2023/02/21 10:09:41;;;;;;;8.38;3.78;;;;;;;18.28;70.53;100028.09;5035034;28;20119;-76
2023/02/21 10:12:13;;;;;;;10.00;2.97;;;;;;;18.30;63.31;100025.44;5052583;28;20032;-74
2023/02/21 10:15:18;;;;;;;6.13;3.90;;;;;;;18.76;60.18;100020.03;5034868;28;20029;-75
2023/02/21 10:17:56;;;;;;;9.32;3.30;;;;;;;18.55;57.68;100011.03;5050993;28;20044;-71
2023/02/21 10:20:56;;;;;;;10.65;4.40;;;;;;;18.64;58.55;100004.53;5048667;28;20098;-78
2023/02/21 10:23:42;;;;;;;10.15;5.10;;;;;;;18.48;57.52;99999.44;5034119;28;20098;-76
2023/02/21 10:26:11;;;;;;;6.60;3.45;;;;;;;18.71;52.56;99965.41;5033466;28;20516;-76
2023/02/21 10:28:38;;;;;;;6.90;3.40;;;;;;;18.67;49.48;99942.50;5051513;28;20040;-74
2023/02/21 10:31:11;;;;;;;9.82;4.03;;;;;;;19.16;49.03;99971.19;5033798;28;20036;-75
2023/02/21 10:33:38;;;;;;;7.07;3.58;;;;;;;19.40;50.86;99973.06;5051720;28;20029;-75
2023/02/21 10:36:17;;;;;;;9.30;3.08;;;;;;;19.41;47.08;99937.81;5033950;28;20123;-76
2023/02/21 10:38:52;;;;;;;5.47;2.95;;;;;;;19.83;44.11;99974.50;5057533;28;20040;-75
2023/02/21 10:41:18;;;;;;;3.03;2.70;;;;;;;19.82;41.39;99975.44;5033791;28;20020;-74
2023/02/21 10:43:49;;;;;;;5.93;1.70;;;;;;;19.73;40.22;99918.44;5051187;28;20531;-77
2023/02/21 10:46:21;;;;;;;9.60;3.80;;;;;;;19.14;45.67;99927.47;5033938;28;20028;-74
2023/02/21 10:48:52;;;;;;;9.20;4.22;;;;;;;19.61;46.12;99914.13;5051427;28;20025;-73
2023/02/21 10:51:32;;;;;;;10.80;4.50;;;;;;;19.78;46.98;99957.69;5033554;28;20044;-76
2023/02/21 10:54:24;;;;;;;11.43;2.97;;;;;;;19.55;46.83;99904.19;5051668;28;20035;-76
2023/02/21 10:56:52;;;;;;;7.20;3.47;;;;;;;20.27;45.69;99952.66;5032272;28;20093;-76
2023/02/21 10:59:36;;;;;;;10.60;4.38;;;;;;;20.05;44.57;99900.78;5032790;28;20040;-75
2023/02/21 11:02:21;;;;;;;9.13;4.97;;;;;;;19.93;44.01;99886.97;5042490;28;20636;-74
2023/02/21 11:04:54;;;;;;;12.50;4.57;;;;;;;20.47;43.23;99883.19;5070790;28;20044;-75
2023/02/21 11:07:22;;;;;;;9.15;3.80;;;;;;;20.80;43.84;99920.53;5070276;28;20518;-74
2023/02/21 11:09:49;;;;;;;5.88;3.78;;;;;;;19.92;43.43;99885.31;5052925;28;20025;-75
2023/02/21 11:12:14;;;;;;;7.85;4.88;;;;;;;20.31;43.46;99920.53;5053167;28;20036;-75
2023/02/21 11:14:41;;;;;;;9.15;4.30;;;;;;;19.93;43.15;99871.47;5071968;28;20040;-76
2023/02/21 11:17:14;;;;;;;8.82;5.22;;;;;;;20.45;43.00;99913.47;5071470;28;20028;-76
2023/02/21 11:19:50;;;;;;;7.05;2.40;;;;;;;20.94;41.93;99923.75;5053482;28;20054;-76
2023/02/21 11:22:42;;;;;;;9.52;2.90;;;;;;;20.48;41.40;99900.34;5070992;28;20025;-75
2023/02/21 11:25:17;;;;;;;6.20;2.55;;;;;;;20.91;41.67;99895.56;5052616;28;20124;-75
2023/02/21 11:27:44;;;;;;;6.05;2.55;;;;;;;20.54;41.79;99856.00;5053487;28;20474;-75
2023/02/21 11:30:17;;;;;;;8.95;3.10;;;;;;;21.01;41.39;99893.13;5075089;28;20047;-76
2023/02/21 11:32:49;;;;;;;9.85;5.38;;;;;;;21.18;41.48;99872.91;5075266;28;20127;-75
2023/02/21 11:35:21;;;;;;;;;;;;;;;21.04;39.38;99882.59;5075902;28;20029;-76
2023/02/21 11:38:10;;;;;;;9.02;4.25;;;;;;;21.34;39.49;99877.75;5057614;28;20027;-75
2023/02/21 11:40:50;;;;;;;6.18;2.58;;;;;;;21.94;38.07;99872.38;5056316;28;20040;-75
2023/02/21 11:43:27;;;;;;;4.28;1.83;;;;;;;22.20;36.56;99876.38;5075187;28;20033;-75
2023/02/21 11:46:12;;;;;;;3.30;1.98;;;;;;;21.84;35.39;99867.09;5057526;28;20503;-76
2023/02/21 11:49:14;;;;;;;5.15;1.42;;;;;;;21.33;34.85;99878.72;5057222;28;20028;-76
2023/02/21 11:51:56;;;;;;;2.15;0.85;;;;;;;22.18;31.57;99863.56;5075101;28;20066;-75
2023/02/21 11:54:28;;;;;;;5.65;1.70;;;;;;;22.49;30.53;99819.66;5074855;28;20032;-76
2023/02/21 11:57:07;;;;;;;2.78;1.67;;;;;;;21.94;35.08;99870.63;5056686;28;20028;-74
2023/02/21 11:59:52;;;;;;;5.25;1.88;;;;;;;22.28;35.48;99869.63;5074972;28;20051;-75
2023/02/21 12:02:45;;;;;;;6.60;1.77;;;;;;;22.18;34.87;99863.56;5074895;28;20056;-74
2023/02/21 12:05:20;;;;;;;8.07;2.25;;;;;;;22.26;34.03;99855.97;5057047;28;20037;-74
2023/02/21 12:08:13;;;;;;;4.85;2.40;;;;;;;22.54;33.82;99854.63;5056518;28;20415;-74
2023/02/21 12:10:56;;;;;;;5.55;3.25;;;;;;;22.36;33.74;99856.13;5073863;28;20044;-73
2023/02/21 12:13:28;;;;;;;7.85;3.80;;;;;;;22.34;34.92;99845.03;5056488;28;20119;-74
2023/02/21 12:16:26;;;;;;;;;;;;;;;22.61;34.98;99839.47;5075015;28;20029;-74
2023/02/21 12:18:58;;;;;;;3.17;2.20;;;;;;;22.15;31.93;99826.69;5029380;28;20382;-75
2023/02/21 12:21:43;;;;;;;4.03;2.90;;;;;;;22.75;30.69;99831.41;5056101;28;20471;-78
2023/02/21 12:24:15;;;;;;;5.60;1.40;;;;;;;22.92;28.62;99833.44;5074423;28;20119;-78
2023/02/21 12:26:53;;;;;;;4.28;1.30;;;;;;;23.10;28.37;99822.41;5074547;28;20024;-77
2023/02/21 12:29:33;;;;;;;2.33;0.98;;;;;;;23.11;27.06;99811.09;5074321;28;20063;-76
2023/02/21 12:32:08;;;;;;;1.83;0.57;;;;;;;22.95;28.53;99805.53;5056862;28;20039;-77
2023/02/21 12:35:01;;;;;;;3.10;1.80;;;;;;;23.63;27.33;99805.00;5056466;28;20035;-78
2023/02/21 12:37:52;;;;;;;8.00;2.00;;;;;;;23.24;27.50;99792.72;5056241;28;20097;-76
2023/02/21 12:40:38;;;;;;;3.28;1.40;;;;;;;23.75;28.25;99798.75;5056147;28;20123;-77
2023/02/21 12:43:41;;;;;;;4.95;1.67;;;;;;;23.60;28.26;99784.50;5055892;28;20036;-77
2023/02/21 12:46:08;;;;;;;2.40;1.40;;;;;;;23.84;27.20;99782.41;5056242;28;20028;-77
2023/02/21 12:48:44;;;;;;;3.95;1.88;;;;;;;23.38;27.64;99698.19;5056586;28;20028;-77
2023/02/21 12:51:15;;;;;;;5.05;1.65;;;;;;;23.67;27.60;99772.63;5074240;28;20025;-78
2023/02/21 12:54:03;;;;;;;2.67;1.10;;;;;;;23.79;28.15;99776.78;5073568;28;20039;-76
2023/02/21 12:56:48;;;;;;;3.33;1.02;;;;;;;23.60;27.73;99789.69;5055720;28;20110;-75
2023/02/21 12:59:32;;;;;;;6.78;1.58;;;;;;;23.70;28.22;99787.13;5073839;28;20032;-76
2023/02/21 13:02:08;;;;;;;2.78;1.23;;;;;;;23.57;27.96;99779.53;5072426;28;20117;-76
2023/02/21 13:04:58;;;;;;;1.40;0.98;;;;;;;23.46;27.85;99726.91;5055801;28;20060;-77
2023/02/21 13:07:33;;;;;;;4.32;1.45;;;;;;;23.64;27.99;99759.91;5056314;28;20041;-77
2023/02/21 13:10:08;;;;;;;4.68;1.30;;;;;;;23.70;27.35;99779.34;5073643;28;20036;-76
2023/02/21 13:13:02;;;;;;;3.28;1.50;;;;;;;22.84;26.83;99729.56;5074384;28;20162;-76
2023/02/21 13:15:29;;;;;;;2.67;1.20;;;;;;;23.77;27.13;99729.34;5051734;28;20037;-75
2023/02/21 13:18:09;;;;;;;5.20;1.48;;;;;;;23.41;27.12;99775.78;5073707;28;20495;-76
2023/02/21 13:20:46;;;;;;;1.90;1.23;;;;;;;23.36;26.41;99713.06;5073598;28;20040;-75
2023/02/21 13:26:44;;;;;;;5.50;1.20;;;;;;;24.04;27.18;99755.56;5073117;28;20039;-75
2023/02/21 13:29:31;;;;;;;2.35;1.13;;;;;;;23.53;27.79;99720.25;5055565;28;20032;-74
2023/02/21 13:32:05;;;;;;;3.58;1.48;;;;;;;24.17;27.54;99762.25;5068613;28;20033;-76
2023/02/21 13:34:43;;;;;;;7.03;1.20;;;;;;;23.57;26.70;99708.66;5073031;28;20056;-75
2023/02/21 13:37:17;;;;;;;3.42;0.95;;;;;;;23.54;26.99;99709.72;5069653;28;20035;-75
2023/02/21 13:40:06;;;;;;;4.03;1.10;;;;;;;23.97;27.19;99751.81;5055603;28;20037;-76
2023/02/21 13:42:35;;;;;;;2.95;1.17;;;;;;;23.78;27.15;99719.78;5055030;28;20111;-75
2023/02/21 13:45:24;;;;;;;2.78;1.13;;;;;;;24.01;27.32;99752.34;5072277;28;20040;-75
2023/02/21 13:47:52;;;;;;;5.18;1.30;;;;;;;24.36;27.81;99759.72;5054372;28;20043;-76
2023/02/21 13:50:33;;;;;;;3.35;1.45;;;;;;;24.09;27.82;99761.16;5054907;28;20119;-74
2023/02/21 13:53:07;;;;;;;7.47;2.03;;;;;;;23.85;27.68;99757.22;5054086;28;20032;-74
2023/02/21 13:55:37;;;;;;;5.18;1.60;;;;;;;24.12;27.51;99752.28;5055014;28;20032;-75
2023/02/21 13:58:04;;;;;;;5.63;1.60;;;;;;;23.23;27.46;99765.16;5072456;28;20033;-77
2023/02/21 14:00:29;;;;;;;7.95;2.28;;;;;;;23.87;27.66;99761.34;5054783;28;20039;-76
2023/02/21 14:03:01;;;;;;;5.03;1.90;;;;;;;23.47;27.61;99760.53;5035756;28;20136;-76